Time;durP1;ratioP1;P1;durP2;ratioP2;P2;SDS_P1;SDS_P2;PMS_P1;PMS_P2;Temp;Humidity;BMP_temperature;BMP_pressure;BME280_temperature;BME280_humidity;BME280_pressure;Samples;Min_cycle;Max_cycle;Signal;HPM_P1;HPM_P2
2022/12/15 00:39:25;;;;;;;10.47;8.27;;;-3.10;99.90;-2.10;95352.00;;;;4977912;28;20474;-83
2022/12/15 00:42:14;;;;;;;12.43;7.40;;;-3.40;99.90;-2.20;95357.00;;;;4981701;28;20435;-85
2022/12/15 00:45:03;;;;;;;11.10;7.23;;;-1.60;99.90;-2.30;95345.00;;;;4984501;28;20458;-83
2022/12/15 00:47:51;;;;;;;10.90;7.27;;;-3.50;99.90;-2.20;95361.00;;;;5012180;28;20456;-83
2022/12/15 00:50:54;;;;;;;13.03;7.50;;;-3.00;99.90;-2.20;95360.00;;;;4981910;28;20443;-83
2022/12/15 01:21:52;;;;;;;8.30;6.77;;;-3.00;99.90;-1.80;95409.00;;;;4981742;28;20465;-82
2022/12/15 01:24:43;;;;;;;10.20;6.43;;;-2.80;99.90;-1.80;95421.00;;;;4978917;28;20412;-83
2022/12/15 01:27:32;;;;;;;8.93;6.27;;;-2.70;99.90;-1.70;95410.00;;;;4980265;28;20447;-83
2022/12/15 01:30:24;;;;;;;6.43;4.97;;;-2.70;99.90;-1.80;95416.00;;;;4982641;28;20454;-83
2022/12/15 01:33:13;;;;;;;10.13;6.07;;;-2.70;99.90;-1.80;95421.00;;;;4970328;28;20446;-82
2022/12/15 01:36:02;;;;;;;9.97;5.93;;;-2.90;99.90;-1.90;95431.00;;;;5004220;28;20508;-82
2022/12/15 01:38:51;;;;;;;10.67;7.73;;;-2.80;99.90;-1.80;95448.00;;;;4976191;22;20565;-88
2022/12/15 01:41:41;;;;;;;12.57;6.67;;;-3.00;99.90;-1.60;95443.00;;;;4971849;28;20419;-86
2022/12/15 01:44:30;;;;;;;8.90;5.43;;;-3.00;99.90;-1.60;95424.00;;;;4971948;28;20470;-87
2022/12/15 01:47:24;;;;;;;8.33;6.30;;;-2.70;99.90;-1.80;95432.00;;;;4968810;28;20462;-87
2022/12/15 01:50:14;;;;;;;7.43;4.83;;;-1.50;99.90;-2.00;95428.00;;;;4967270;28;20436;-86
2022/12/15 01:53:04;;;;;;;11.30;6.17;;;-1.40;99.90;-2.00;95425.00;;;;4971668;28;20797;-87
2022/12/15 01:55:52;;;;;;;5.77;4.63;;;-2.80;99.90;-2.40;95421.00;;;;4965307;28;20808;-87
2022/12/15 01:58:45;;;;;;;2.70;1.20;;;-2.80;99.90;-2.70;95419.00;;;;4963654;28;20459;-89
2022/12/15 02:01:35;;;;;;;8.00;4.97;;;-0.50;99.90;-2.20;95417.00;;;;4998284;23;20430;-71
2022/12/15 02:04:24;;;;;;;5.43;3.90;;;-2.80;99.90;-2.20;95437.00;;;;4960812;28;20435;-69
2022/12/15 02:07:14;;;;;;;8.23;6.57;;;-2.60;99.90;-2.10;95432.00;;;;4958117;28;20446;-70
2022/12/15 02:10:06;;;;;;;7.03;5.30;;;-2.70;99.90;-1.70;95435.00;;;;4929489;29;20440;-71
2022/12/15 02:13:08;;;;;;;8.43;5.90;;;-2.80;99.90;-1.80;95446.00;;;;4929662;28;20471;-71
2022/12/15 02:16:06;;;;;;;8.80;5.70;;;-2.80;99.90;-1.70;95434.00;;;;4930151;29;20814;-71
2022/12/15 02:19:09;;;;;;;7.43;4.87;;;-2.50;99.90;-1.60;95447.00;;;;4930108;29;20491;-71
2022/12/15 02:22:19;;;;;;;7.67;5.37;;;-2.60;99.90;-1.50;95445.00;;;;4929411;29;20971;-71
2022/12/15 02:25:38;;;;;;;5.17;3.37;;;-2.60;99.90;-1.60;95463.00;;;;4939657;28;20443;-71
2022/12/15 02:28:42;;;;;;;7.97;4.83;;;-2.30;99.90;-1.40;95466.00;;;;4932728;29;20457;-71
2022/12/15 02:31:49;;;;;;;6.70;5.10;;;-2.20;99.90;-1.50;95466.00;;;;4942754;28;20435;-71
2022/12/15 02:34:44;;;;;;;6.47;5.53;;;-2.30;99.90;-1.30;95461.00;;;;4933710;29;20436;-71
2022/12/15 02:37:35;;;;;;;8.87;5.90;;;-2.30;99.90;-1.70;95463.00;;;;4947411;28;20448;-71
2022/12/15 02:40:24;;;;;;;7.23;5.37;;;-2.50;99.90;-1.40;95479.00;;;;4948185;29;20427;-71
2022/12/15 02:43:12;;;;;;;8.83;6.97;;;-2.40;99.90;-1.30;95484.00;;;;4932170;29;20429;-71
2022/12/15 02:46:15;;;;;;;11.60;8.17;;;-2.40;99.90;-1.30;95500.00;;;;4935123;29;20846;-71
2022/12/15 02:49:18;;;;;;;14.93;9.93;;;-2.40;99.90;-1.30;95505.00;;;;4936831;28;20826;-71
2022/12/15 02:52:25;;;;;;;16.33;10.40;;;-2.40;99.90;-1.30;95495.00;;;;4938664;29;20443;-71
2022/12/15 02:55:22;;;;;;;15.50;11.47;;;-2.40;99.90;-1.20;95497.00;;;;4949301;28;21206;-71
2022/12/15 02:58:21;;;;;;;16.70;8.90;;;-2.30;99.90;-1.20;95505.00;;;;4947820;29;20451;-71
2022/12/15 03:01:16;;;;;;;14.67;10.40;;;-2.30;99.90;-1.20;95510.00;;;;4939253;29;20424;-71
2022/12/15 03:04:09;;;;;;;17.70;10.87;;;-2.20;99.90;-1.30;95519.00;;;;4967283;28;20443;-71
2022/12/15 03:07:01;;;;;;;16.27;11.30;;;-2.40;99.90;-1.30;95525.00;;;;4947394;29;20436;-71
2022/12/15 03:09:50;;;;;;;12.00;9.50;;;-2.30;99.90;-1.50;95526.00;;;;4929290;29;20445;-71
2022/12/15 03:12:40;;;;;;;20.00;10.60;;;-2.30;99.90;-1.40;95520.00;;;;4932862;29;20455;-71
2022/12/15 03:15:28;;;;;;;13.70;9.37;;;-2.30;99.90;-1.50;95531.00;;;;4945098;29;20443;-71
2022/12/15 03:18:22;;;;;;;15.70;11.00;;;-2.40;99.90;-1.60;95527.00;;;;4958153;28;20527;-71
2022/12/15 03:21:13;;;;;;;14.37;11.03;;;-2.50;99.90;-1.50;95531.00;;;;4932155;28;20425;-71
2022/12/15 03:24:02;;;;;;;19.80;11.33;;;-1.70;99.90;-1.40;95533.00;;;;4929007;29;20428;-71
2022/12/15 03:26:52;;;;;;;18.43;12.13;;;-2.20;99.90;-1.40;95528.00;;;;4944463;29;20420;-71
2022/12/15 03:29:43;;;;;;;12.67;9.87;;;-2.50;99.90;-1.40;95531.00;;;;4937126;29;20448;-71
2022/12/15 03:32:32;;;;;;;17.47;9.87;;;-2.20;99.90;-1.40;95539.00;;;;4947199;28;20425;-71
2022/12/15 03:35:22;;;;;;;16.70;9.80;;;-2.60;99.90;-1.30;95559.00;;;;4940742;29;20431;-71
2022/12/15 03:38:13;;;;;;;15.63;11.07;;;-2.40;99.90;-1.50;95569.00;;;;4947444;29;20444;-70
2022/12/15 03:41:02;;;;;;;17.23;11.97;;;-2.40;99.90;-1.40;95549.00;;;;4947152;29;20431;-70
2022/12/15 03:43:52;;;;;;;16.10;10.90;;;-1.90;99.90;-1.50;95557.00;;;;4950113;28;20427;-71
2022/12/15 03:46:42;;;;;;;22.20;11.97;;;-2.20;99.90;-1.60;95556.00;;;;4938999;29;20516;-71
2022/12/15 03:49:32;;;;;;;16.57;11.80;;;-2.00;99.90;-1.70;95542.00;;;;4951209;28;20456;-71
2022/12/15 03:52:21;;;;;;;15.83;11.30;;;-2.60;99.90;-1.40;95536.00;;;;4941791;28;20459;-71
2022/12/15 03:55:12;;;;;;;16.40;10.63;;;-2.20;99.90;-1.50;95530.00;;;;4932727;29;20436;-71
2022/12/15 03:58:01;;;;;;;21.30;13.00;;;-2.30;99.90;-1.40;95521.00;;;;4931169;29;20441;-71
2022/12/15 04:00:50;;;;;;;17.87;11.27;;;-2.40;99.90;-1.30;95519.00;;;;4947196;28;20479;-71
2022/12/15 04:03:39;;;;;;;20.87;13.23;;;-2.30;99.90;-1.40;95512.00;;;;4952601;28;20436;-71
2022/12/15 04:06:29;;;;;;;18.73;13.77;;;-2.70;99.90;-1.40;95517.00;;;;4950824;29;20439;-71
2022/12/15 04:09:18;;;;;;;13.33;10.37;;;-1.90;99.90;-1.40;95510.00;;;;4949591;29;20458;-70
2022/12/15 04:12:10;;;;;;;18.67;12.57;;;-2.50;99.90;-1.40;95508.00;;;;4977624;28;20428;-71
2022/12/15 04:14:59;;;;;;;20.20;11.90;;;-2.60;99.90;-1.30;95512.00;;;;4938468;29;20442;-71
2022/12/15 04:17:47;;;;;;;17.37;12.03;;;-1.60;99.90;-1.30;95514.00;;;;4965896;28;20432;-71
2022/12/15 04:20:36;;;;;;;18.93;12.50;;;-2.10;99.90;-1.30;95525.00;;;;4937660;29;20480;-71
2022/12/15 04:23:25;;;;;;;23.90;13.67;;;-2.50;99.90;-1.30;95524.00;;;;4951387;28;20810;-71
2022/12/15 05:31:51;;;;;;;17.90;12.30;;;-2.50;99.90;-1.70;95553.00;;;;4936355;29;20433;-70
2022/12/15 05:34:40;;;;;;;17.70;10.83;;;-2.80;99.90;-1.70;95573.00;;;;4933967;28;20815;-70
2022/12/15 05:37:29;;;;;;;15.03;11.77;;;-2.80;99.90;-1.70;95562.00;;;;4930014;29;20456;-70
2022/12/15 05:40:17;;;;;;;14.73;11.63;;;-2.60;99.90;-1.70;95563.00;;;;4935096;29;20471;-71
2022/12/15 05:43:06;;;;;;;20.73;13.13;;;-2.60;99.90;-1.60;95569.00;;;;4943941;29;20432;-70
2022/12/15 05:45:55;;;;;;;19.53;13.33;;;-2.70;99.90;-1.60;95568.00;;;;4937062;28;20838;-71
2022/12/15 05:48:45;;;;;;;20.40;13.23;;;-2.60;99.90;-1.90;95566.00;;;;4934701;29;20982;-71
2022/12/15 05:51:37;;;;;;;19.17;12.73;;;-2.60;99.90;-1.90;95575.00;;;;4938166;28;20424;-71
2022/12/15 05:54:26;;;;;;;20.47;13.10;;;-2.90;99.90;-1.80;95578.00;;;;4949077;29;20435;-71
2022/12/15 05:57:15;;;;;;;21.77;13.87;;;-1.70;99.90;-1.80;95575.00;;;;4951046;28;20436;-72
2022/12/15 06:00:05;;;;;;;23.97;12.03;;;-2.90;99.90;-1.90;95586.00;;;;4949786;28;20468;-71
2022/12/15 06:02:54;;;;;;;17.13;12.93;;;-2.80;99.90;-1.80;95591.00;;;;4933175;29;20456;-71
2022/12/15 06:05:44;;;;;;;22.13;11.87;;;-1.90;99.90;-1.80;95579.00;;;;4980797;28;20814;-71
2022/12/15 06:08:36;;;;;;;18.90;12.47;;;-2.90;99.90;-2.10;95596.00;;;;4949812;28;20832;-71
2022/12/15 06:11:25;;;;;;;17.33;12.83;;;-2.60;99.90;-2.00;95592.00;;;;4977847;28;20985;-71
2022/12/15 06:14:14;;;;;;;16.60;12.77;;;-2.80;99.90;-2.00;95600.00;;;;4935293;28;20802;-70
2022/12/15 06:17:03;;;;;;;21.17;13.03;;;-3.10;99.90;-2.00;95605.00;;;;4945054;28;20444;-71
2022/12/15 06:19:51;;;;;;;24.33;11.63;;;-2.90;99.90;-2.20;95607.00;;;;4943273;29;20479;-71
2022/12/15 06:22:41;;;;;;;18.30;12.30;;;-2.40;99.90;-2.30;95598.00;;;;4939889;28;20502;-71
2022/12/15 06:25:32;;;;;;;23.50;12.63;;;-2.90;99.90;-2.40;95612.00;;;;4939648;28;20428;-71
2022/12/15 06:28:22;;;;;;;18.57;10.83;;;-3.20;99.90;-2.50;95619.00;;;;4930929;29;20448;-71
2022/12/15 06:31:13;;;;;;;23.70;12.10;;;-3.00;99.90;-2.30;95616.00;;;;4938472;28;20441;-71
2022/12/15 06:34:04;;;;;;;13.77;10.83;;;-3.10;99.90;-2.50;95626.00;;;;4934222;29;20810;-71
2022/12/15 06:36:53;;;;;;;17.73;12.13;;;-3.40;99.90;-2.40;95638.00;;;;4942430;29;20436;-71
2022/12/15 06:39:43;;;;;;;17.87;13.77;;;-3.10;99.90;-2.30;95645.00;;;;4930767;28;20445;-71
2022/12/15 06:42:32;;;;;;;22.43;15.93;;;-3.30;99.90;-2.50;95644.00;;;;4930249;29;20444;-71
2022/12/15 06:45:20;;;;;;;19.10;13.47;;;-3.00;99.90;-2.40;95660.00;;;;4935562;29;20424;-71
2022/12/15 06:48:09;;;;;;;20.60;14.33;;;-3.50;99.90;-2.50;95659.00;;;;4935401;29;20834;-71
2022/12/15 06:51:04;;;;;;;13.23;10.47;;;-3.10;99.90;-2.50;95670.00;;;;4947730;29;20444;-71
2022/12/15 06:53:54;;;;;;;16.03;11.57;;;-2.90;99.90;-2.50;95669.00;;;;4940451;29;20451;-72
2022/12/15 06:56:44;;;;;;;13.70;11.13;;;-3.30;99.90;-2.70;95671.00;;;;4941809;29;20421;-71
2022/12/15 06:59:33;;;;;;;15.80;10.53;;;-2.90;99.90;-2.80;95676.00;;;;4938705;29;20453;-71
2022/12/15 07:02:21;;;;;;;14.17;9.07;;;-3.40;99.90;-2.60;95688.00;;;;4936744;29;20456;-72
2022/12/15 07:05:15;;;;;;;12.73;8.87;;;-2.90;99.90;-2.60;95695.00;;;;4945816;29;20501;-72
2022/12/15 07:08:03;;;;;;;13.97;8.87;;;-2.80;99.90;-2.50;95698.00;;;;4943049;29;20456;-71
2022/12/15 07:10:52;;;;;;;13.10;10.77;;;-3.60;99.90;-2.40;95687.00;;;;4936285;28;20967;-72
2022/12/15 07:13:42;;;;;;;15.20;9.57;;;-3.30;99.90;-2.30;95701.00;;;;4936054;29;20436;-72
2022/12/15 07:16:31;;;;;;;20.20;11.03;;;-3.10;99.90;-2.30;95705.00;;;;4942740;28;20424;-71
2022/12/15 07:19:20;;;;;;;10.50;8.97;;;-3.30;99.90;-2.50;95711.00;;;;4936642;28;20457;-71
2022/12/15 07:22:08;;;;;;;13.30;10.07;;;-2.70;99.90;-2.30;95718.00;;;;4939711;29;20455;-71
2022/12/15 07:24:58;;;;;;;13.57;8.17;;;-3.00;99.90;-2.30;95729.00;;;;4944667;28;20432;-71
2022/12/15 07:27:47;;;;;;;17.50;11.07;;;-3.30;99.90;-2.60;95741.00;;;;4937591;29;20427;-71
2022/12/15 07:30:38;;;;;;;4.43;2.30;;;-3.10;99.90;-2.90;95736.00;;;;4945875;29;21105;-71
2022/12/15 07:33:27;;;;;;;11.30;7.67;;;-3.00;99.90;-3.20;95736.00;;;;4943493;29;20447;-71
2022/12/15 07:36:16;;;;;;;12.03;9.93;;;-3.40;99.90;-3.20;95732.00;;;;4937997;29;20420;-71
2022/12/15 07:39:05;;;;;;;10.60;8.67;;;-3.70;99.90;-3.00;95737.00;;;;4946809;29;20455;-71
2022/12/15 07:41:55;;;;;;;13.77;9.90;;;-3.20;99.90;-3.20;95736.00;;;;4938868;28;20836;-71
2022/12/15 07:44:43;;;;;;;9.60;7.70;;;-3.30;99.90;-3.10;95763.00;;;;4930864;29;20428;-72
2022/12/15 07:47:34;;;;;;;8.40;7.23;;;-3.40;99.90;-3.10;95766.00;;;;4932143;28;20421;-71
2022/12/15 07:50:23;;;;;;;11.03;8.43;;;-3.60;99.90;-2.90;95767.00;;;;4932735;29;20433;-72
2022/12/15 07:53:12;;;;;;;14.67;9.20;;;-3.30;99.90;-2.50;95777.00;;;;4940096;28;20440;-72
2022/12/15 07:56:01;;;;;;;12.30;8.57;;;-3.10;99.90;-2.10;95777.00;;;;4940344;28;20444;-72
2022/12/15 07:58:54;;;;;;;12.43;9.03;;;-3.20;99.90;-2.40;95776.00;;;;4934737;29;20452;-72
2022/12/15 08:01:44;;;;;;;16.27;8.93;;;-3.20;99.90;-2.50;95790.00;;;;4946924;28;20895;-71
2022/12/15 08:04:34;;;;;;;12.80;9.90;;;-3.10;99.90;-2.40;95782.00;;;;4939585;29;20436;-71
2022/12/15 08:07:23;;;;;;;9.87;8.90;;;-3.10;99.90;-2.20;95791.00;;;;4939715;29;20429;-71
2022/12/15 08:10:11;;;;;;;14.17;8.37;;;-3.20;99.90;-2.30;95781.00;;;;4949671;29;20425;-72
2022/12/15 08:13:00;;;;;;;17.27;10.83;;;-3.00;99.90;-2.10;95794.00;;;;4939864;29;20421;-72
2022/12/15 08:15:53;;;;;;;14.67;9.37;;;-2.90;99.90;-2.00;95793.00;;;;4943515;28;20508;-71
2022/12/15 08:18:42;;;;;;;16.60;10.70;;;-2.90;99.90;-1.80;95797.00;;;;4950722;29;20947;-72
2022/12/15 08:21:32;;;;;;;9.57;7.90;;;-2.90;99.90;-1.80;95784.00;;;;4945807;28;20475;-71
2022/12/15 08:24:21;;;;;;;15.80;8.40;;;-2.40;99.90;-1.80;95789.00;;;;4945617;29;20443;-71
2022/12/15 08:27:10;;;;;;;11.37;7.07;;;-2.50;99.90;-1.80;95797.00;;;;4938128;29;20487;-71
2022/12/15 08:29:59;;;;;;;13.27;9.87;;;-2.70;99.90;-1.80;95795.00;;;;4968935;28;20432;-71
2022/12/15 08:32:48;;;;;;;9.03;5.10;;;-2.40;99.90;-2.30;95791.00;;;;4940091;29;20431;-72
2022/12/15 08:35:40;;;;;;;9.40;7.33;;;-2.50;99.90;-2.30;95804.00;;;;4939458;28;20429;-72
2022/12/15 08:38:46;;;;;;;12.27;9.33;;;-2.80;99.90;-2.30;95809.00;;;;4938137;29;20598;-71
2022/12/15 08:41:35;;;;;;;8.40;3.60;;;-2.70;99.90;-2.70;95821.00;;;;4992490;28;20558;-71
2022/12/15 08:44:23;;;;;;;8.87;7.20;;;-2.70;99.90;-2.30;95826.00;;;;4951787;28;20497;-72
2022/12/15 08:47:12;;;;;;;12.77;8.73;;;-3.00;99.90;-1.60;95827.00;;;;4946352;29;20433;-72
2022/12/15 08:50:01;;;;;;;11.97;8.57;;;-2.40;99.90;-1.30;95833.00;;;;4944879;28;20428;-71
2022/12/15 08:52:49;;;;;;;14.50;8.30;;;-2.70;99.90;-1.00;95837.00;;;;4941808;28;20908;-71
2022/12/15 08:55:55;;;;;;;14.77;9.53;;;-2.40;99.90;-0.90;95828.00;;;;4940339;29;20427;-71
2022/12/15 08:58:45;;;;;;;10.67;7.23;;;-2.10;99.90;-0.90;95828.00;;;;4946850;29;20878;-71
2022/12/15 09:01:38;;;;;;;13.03;6.43;;;-2.20;99.90;-0.80;95812.00;;;;4940970;29;20471;-71
2022/12/15 09:04:26;;;;;;;14.90;9.40;;;-1.00;99.90;-0.90;95826.00;;;;4945883;28;20916;-72
2022/12/15 09:07:15;;;;;;;16.30;9.43;;;-1.80;99.90;-0.60;95828.00;;;;4945000;28;20445;-71
2022/12/15 09:10:04;;;;;;;12.70;8.77;;;-1.50;99.90;-0.40;95812.00;;;;4971782;28;20473;-72
2022/12/15 09:12:54;;;;;;;12.53;7.60;;;-1.40;99.90;-0.40;95809.00;;;;4936440;29;20417;-71
2022/12/15 09:15:44;;;;;;;6.93;5.67;;;-1.40;99.90;-0.80;95800.00;;;;4930850;29;20437;-72
2022/12/15 09:18:54;;;;;;;9.87;8.53;;;-0.80;99.90;-1.10;95805.00;;;;4941058;29;20452;-72
2022/12/15 09:21:43;;;;;;;10.17;7.17;;;-1.70;99.90;-1.00;95805.00;;;;4946862;28;20546;-71
2022/12/15 09:24:32;;;;;;;8.47;5.37;;;-1.50;99.90;-0.90;95816.00;;;;4945518;29;20959;-72
2022/12/15 09:27:22;;;;;;;9.70;5.80;;;-1.40;99.90;-1.70;95810.00;;;;4944374;28;20513;-71
2022/12/15 09:30:13;;;;;;;10.53;7.20;;;-0.20;99.90;-1.50;95824.00;;;;4940215;29;20436;-71
2022/12/15 09:33:02;;;;;;;6.93;5.67;;;-1.70;99.90;-1.20;95830.00;;;;4940717;28;20450;-71
2022/12/15 09:35:52;;;;;;;5.00;3.80;;;-1.90;99.90;-0.90;95843.00;;;;4939551;29;20802;-71
2022/12/15 09:38:42;;;;;;;8.00;5.53;;;-1.80;99.90;-0.40;95846.00;;;;4943573;29;20452;-71
2022/12/15 09:41:33;;;;;;;9.03;7.00;;;-1.20;99.90;0.00;95850.00;;;;4943343;28;20472;-71
2022/12/15 09:44:25;;;;;;;12.33;7.10;;;-1.30;99.90;0.50;95850.00;;;;4941662;28;20432;-72
2022/12/15 09:47:23;;;;;;;13.27;8.30;;;-1.30;99.90;1.00;95847.00;;;;4946634;28;20458;-71
2022/12/15 09:50:14;;;;;;;13.77;7.87;;;-0.60;99.90;1.50;95852.00;;;;4949276;29;20429;-71
2022/12/15 09:53:05;;;;;;;10.23;5.73;;;-0.50;99.90;1.40;95849.00;;;;4940702;29;20490;-71
2022/12/15 09:56:18;;;;;;;12.67;8.80;;;0.10;99.90;2.00;95864.00;;;;4932228;29;20959;-71
2022/12/15 09:59:27;;;;;;;17.40;11.00;;;0.20;99.90;2.30;95846.00;;;;4930795;28;20535;-71
2022/12/15 10:02:51;;;;;;;14.83;9.83;;;0.50;99.90;2.90;95849.00;;;;4930086;29;20948;-71
2022/12/15 10:05:52;;;;;;;18.40;12.40;;;0.80;99.90;3.20;95838.00;;;;4939048;29;20443;-71
2022/12/15 10:09:12;;;;;;;12.93;9.67;;;1.10;99.90;3.30;95839.00;;;;4949010;23;20495;-84
2022/12/15 10:12:06;;;;;;;15.43;10.23;;;2.00;99.90;3.00;95835.00;;;;4942481;28;20515;-84
2022/12/15 10:15:07;;;;;;;16.43;11.23;;;1.90;99.90;3.60;95834.00;;;;4940942;28;20467;-84
2022/12/15 10:18:06;;;;;;;15.07;9.60;;;2.30;99.90;4.20;95835.00;;;;4936468;28;20947;-84
2022/12/15 10:21:02;;;;;;;16.50;10.13;;;2.40;99.90;5.10;95835.00;;;;4935441;28;20456;-83
2022/12/15 10:23:53;;;;;;;17.97;10.60;;;3.60;99.90;6.10;95845.00;;;;4990617;28;20293;-83
2022/12/15 10:26:43;;;;;;;17.47;11.07;;;5.00;99.90;6.60;95849.00;;;;4936438;28;20703;-84
2022/12/15 10:29:41;;;;;;;18.13;11.20;;;6.30;99.90;7.20;95858.00;;;;4933753;28;20258;-81
2022/12/15 10:32:44;;;;;;;13.67;10.47;;;7.10;99.90;7.80;95866.00;;;;4930249;28;20231;-83
2022/12/15 10:35:40;;;;;;;23.23;10.17;;;7.90;99.90;7.40;95872.00;;;;4931173;28;20197;-82
2022/12/15 10:38:36;;;;;;;12.67;8.77;;;8.60;99.90;6.00;95868.00;;;;4933029;28;20204;-83
2022/12/15 10:41:25;;;;;;;16.40;11.00;;;8.40;97.80;6.10;95864.00;;;;4925222;28;20232;-83
2022/12/15 10:44:25;;;;;;;16.90;11.17;;;8.00;97.30;7.70;95877.00;;;;4984831;28;20213;-84
2022/12/15 10:47:22;;;;;;;17.00;10.60;;;8.10;97.80;8.40;95882.00;;;;4932453;28;20683;-83
2022/12/15 10:50:22;;;;;;;13.77;10.03;;;8.70;96.80;9.00;95890.00;;;;4932127;28;20707;-83
2022/12/15 10:53:40;;;;;;;20.97;11.77;;;9.10;96.50;9.50;95901.00;;;;4928530;28;20204;-84
2022/12/15 10:56:30;;;;;;;19.47;12.53;;;10.50;94.10;9.50;95890.00;;;;4930659;28;20213;-85
2022/12/15 10:59:29;;;;;;;17.63;12.50;;;10.40;92.10;9.40;95905.00;;;;4931558;28;20208;-82
2022/12/15 11:02:31;;;;;;;20.57;12.97;;;10.50;91.50;9.90;95901.00;;;;4935753;28;20219;-83
2022/12/15 11:05:21;;;;;;;15.77;12.53;;;10.70;91.60;10.10;95897.00;;;;4935758;28;20714;-84
2022/12/15 11:08:17;;;;;;;19.40;12.33;;;10.80;91.10;9.60;95886.00;;;;4978450;28;20557;-83
2022/12/15 11:14:45;;;;;;;21.20;14.47;;;10.70;88.90;10.00;95882.00;;;;4933856;28;20209;-84
2022/12/15 11:17:41;;;;;;;21.03;13.40;;;10.60;88.50;10.30;95875.00;;;;4932018;28;20232;-84
2022/12/15 11:20:35;;;;;;;19.90;15.00;;;10.70;89.10;10.10;95872.00;;;;4932445;28;20623;-84
2022/12/15 11:23:42;;;;;;;22.60;15.50;;;10.90;87.80;10.40;95872.00;;;;4934871;28;20212;-85
2022/12/15 11:26:49;;;;;;;19.60;14.03;;;10.80;88.70;10.50;95869.00;;;;4949237;28;20295;-85
2022/12/15 11:29:53;;;;;;;20.90;13.83;;;10.90;87.20;10.10;95878.00;;;;4934083;28;20197;-85
2022/12/15 11:32:47;;;;;;;22.43;15.03;;;11.00;85.50;9.90;95874.00;;;;4934606;28;20597;-83
2022/12/15 11:35:58;;;;;;;24.33;14.40;;;10.70;86.50;10.10;95864.00;;;;4981986;28;20669;-84
2022/12/15 11:38:55;;;;;;;23.63;15.70;;;10.50;87.20;9.90;95861.00;;;;4931940;28;20209;-84
2022/12/15 11:41:54;;;;;;;21.63;14.30;;;10.30;86.60;9.30;95862.00;;;;4934757;28;20248;-85
2022/12/15 11:44:54;;;;;;;19.33;14.93;;;9.90;87.40;9.30;95849.00;;;;4932851;28;20569;-84
2022/12/15 11:47:49;;;;;;;25.83;16.13;;;9.60;88.70;9.20;95834.00;;;;4935314;28;20227;-83
2022/12/15 11:50:51;;;;;;;26.20;15.23;;;9.30;90.00;9.10;95806.00;;;;4929829;28;20247;-84
2022/12/15 11:54:13;;;;;;;21.57;15.53;;;9.00;90.00;9.10;95820.00;;;;4923997;28;20224;-84
2022/12/15 11:57:29;;;;;;;25.23;14.87;;;8.90;90.70;8.90;95823.00;;;;4929863;28;20278;-83
2022/12/15 12:00:20;;;;;;;22.03;16.13;;;8.60;90.80;9.30;95816.00;;;;4949440;28;20224;-86
2022/12/15 12:03:24;;;;;;;36.70;26.47;;;8.50;91.80;9.60;95821.00;;;;4927872;28;20232;-84
2022/12/15 12:06:17;;;;;;;24.73;18.07;;;8.60;91.80;9.60;95825.00;;;;4932988;28;20212;-85
2022/12/15 12:09:33;;;;;;;24.60;17.63;;;8.80;91.80;9.90;95814.00;;;;4928088;28;20247;-85
2022/12/15 12:12:31;;;;;;;20.67;14.63;;;8.90;91.30;9.70;95814.00;;;;4930839;28;20232;-84
2022/12/15 12:15:29;;;;;;;21.80;15.60;;;9.00;91.20;9.90;95813.00;;;;4932225;28;20208;-85
2022/12/15 12:18:23;;;;;;;21.07;16.33;;;9.00;91.10;10.20;95819.00;;;;4933930;28;20205;-84
2022/12/15 12:21:15;;;;;;;29.17;20.47;;;9.20;91.70;9.90;95839.00;;;;4927919;28;20240;-83
2022/12/15 12:24:13;;;;;;;24.80;18.50;;;9.20;91.10;9.70;95840.00;;;;4931345;28;20220;-84
2022/12/15 12:27:10;;;;;;;23.57;17.63;;;9.00;91.20;9.30;95844.00;;;;4965095;28;20205;-84
2022/12/15 12:30:04;;;;;;;25.93;17.83;;;8.70;91.50;9.40;95850.00;;;;4928993;28;20672;-84
2022/12/15 12:33:02;;;;;;;27.67;18.73;;;8.60;91.90;9.40;95852.00;;;;4932581;28;20704;-84
2022/12/15 12:35:57;;;;;;;30.97;20.23;;;8.50;92.00;9.60;95835.00;;;;4929828;29;20240;-84
2022/12/15 12:38:50;;;;;;;28.47;18.77;;;8.50;92.30;9.10;95841.00;;;;4938080;29;20595;-84
2022/12/15 12:41:46;;;;;;;23.70;17.67;;;8.40;92.00;9.10;95848.00;;;;4925390;29;20217;-84
2022/12/15 12:44:38;;;;;;;24.50;18.93;;;8.40;92.20;8.90;95836.00;;;;4928208;28;20208;-85
2022/12/15 12:47:31;;;;;;;29.23;19.67;;;8.20;92.50;8.90;95830.00;;;;4933539;28;20260;-85
2022/12/15 12:50:25;;;;;;;32.30;19.97;;;8.00;93.10;8.60;95842.00;;;;4929465;28;20232;-85
2022/12/15 12:53:33;;;;;;;30.53;18.23;;;7.70;93.10;8.10;95839.00;;;;4931581;28;20228;-85
2022/12/15 12:56:40;;;;;;;30.50;19.53;;;7.50;93.30;8.10;95831.00;;;;4930726;28;20220;-86
2022/12/15 12:59:41;;;;;;;26.20;18.67;;;7.30;93.40;7.10;95806.00;;;;4930449;28;20672;-85
2022/12/15 13:03:17;;;;;;;24.97;17.87;;;7.00;93.50;8.30;95804.00;;;;4927954;28;21698;-85
2022/12/15 13:06:22;;;;;;;27.40;18.23;;;6.90;94.30;7.00;95820.00;;;;4924249;28;20197;-85
2022/12/15 13:09:23;;;;;;;28.13;17.70;;;6.80;94.20;6.20;95815.00;;;;4925970;28;20216;-84
2022/12/15 13:12:35;;;;;;;33.60;19.33;;;6.50;94.20;7.00;95789.00;;;;4950151;28;20228;-84
2022/12/15 13:15:44;;;;;;;29.50;19.67;;;6.20;94.70;7.40;95800.00;;;;4981798;28;20276;-84
2022/12/15 13:18:57;;;;;;;24.93;18.60;;;6.40;94.90;6.90;95801.00;;;;4930537;28;20208;-84
2022/12/15 13:21:56;;;;;;;29.93;19.60;;;6.40;95.00;7.70;95819.00;;;;4932548;28;20255;-84
2022/12/15 13:24:48;;;;;;;26.77;20.30;;;6.40;95.20;7.90;95827.00;;;;4930571;28;20255;-84
2022/12/15 13:27:40;;;;;;;37.93;23.60;;;6.60;95.40;7.80;95838.00;;;;4931199;28;20213;-83
2022/12/15 13:30:29;;;;;;;48.73;25.10;;;6.60;95.10;6.80;95863.00;;;;4931326;28;20239;-83
2022/12/15 13:33:20;;;;;;;27.40;19.40;;;6.50;95.10;5.70;95882.00;;;;4938444;28;20554;-83
2022/12/15 13:36:08;;;;;;;28.03;18.63;;;6.00;95.70;4.70;95874.00;;;;4929287;28;20223;-85
2022/12/15 13:38:57;;;;;;;31.27;19.77;;;5.30;97.10;5.20;95875.00;;;;4949431;28;20247;-84
2022/12/15 13:42:34;;;;;;;30.67;20.67;;;4.80;97.60;5.50;95851.00;;;;4924962;29;20244;-84
2022/12/15 13:45:44;;;;;;;32.73;19.67;;;4.60;98.10;5.50;95850.00;;;;4923278;28;20595;-84
2022/12/15 13:48:42;;;;;;;28.23;18.60;;;4.50;98.40;5.10;95851.00;;;;4930995;28;20204;-82
2022/12/15 13:51:34;;;;;;;27.87;19.67;;;4.30;98.80;4.70;95845.00;;;;4926220;28;20235;-83
2022/12/15 13:54:31;;;;;;;30.47;18.83;;;4.10;99.40;4.10;95850.00;;;;4931358;28;20240;-83
2022/12/15 13:57:20;;;;;;;26.73;18.03;;;3.90;99.90;4.00;95843.00;;;;4929437;28;20205;-84
2022/12/15 14:00:17;;;;;;;23.07;15.23;;;3.70;99.90;3.70;95841.00;;;;4927958;28;20224;-84
2022/12/15 14:03:10;;;;;;;34.17;18.43;;;3.40;99.90;3.60;95830.00;;;;4930827;28;20204;-83
2022/12/15 14:06:01;;;;;;;23.33;18.00;;;3.20;99.90;3.50;95852.00;;;;4932708;28;20216;-83
2022/12/15 14:08:51;;;;;;;26.70;16.17;;;3.10;99.90;3.10;95846.00;;;;4930894;28;20453;-83
2022/12/15 14:11:42;;;;;;;24.27;15.70;;;2.80;99.90;3.40;95860.00;;;;4926570;28;20460;-86
2022/12/15 14:14:47;;;;;;;25.17;17.17;;;2.90;99.90;3.60;95863.00;;;;4924779;28;20470;-83
2022/12/15 14:17:37;;;;;;;30.27;17.90;;;2.70;99.90;3.50;95860.00;;;;4928735;28;20452;-83
2022/12/15 14:20:29;;;;;;;26.90;20.73;;;2.60;99.90;3.50;95865.00;;;;4927847;28;20464;-84
2022/12/15 14:23:21;;;;;;;26.93;18.33;;;2.80;99.90;3.70;95865.00;;;;4926022;28;20437;-82
2022/12/15 14:26:12;;;;;;;28.97;19.97;;;2.70;99.90;3.70;95867.00;;;;4940448;28;20425;-84
2022/12/15 14:29:05;;;;;;;25.67;19.30;;;2.70;99.90;3.70;95865.00;;;;4924261;28;20448;-84
2022/12/15 14:31:56;;;;;;;36.47;21.10;;;2.70;99.90;3.70;95870.00;;;;4927535;28;20453;-83
2022/12/15 14:34:45;;;;;;;33.60;21.87;;;3.00;99.90;3.60;95880.00;;;;5027075;28;20504;-83
2022/12/15 14:37:34;;;;;;;36.40;22.30;;;2.90;99.90;3.60;95885.00;;;;4997198;28;20429;-83
2022/12/15 14:40:25;;;;;;;36.23;21.33;;;2.60;99.90;3.30;95882.00;;;;5020225;28;20457;-83
2022/12/15 14:43:21;;;;;;;28.57;20.27;;;2.50;99.90;3.50;95887.00;;;;5025496;28;20443;-84
2022/12/15 14:46:15;;;;;;;33.50;20.30;;;2.50;99.90;3.30;95875.00;;;;5019257;28;20456;-85
2022/12/15 14:49:07;;;;;;;29.47;19.87;;;3.00;99.90;3.40;95870.00;;;;5015698;28;20448;-84
2022/12/15 14:52:01;;;;;;;33.73;23.33;;;2.40;99.90;3.20;95860.00;;;;5026494;28;20448;-84
2022/12/15 14:54:54;;;;;;;32.70;21.20;;;2.30;99.90;3.30;95879.00;;;;5027840;28;20499;-83
2022/12/15 14:57:47;;;;;;;48.33;20.67;;;2.50;99.90;3.10;95869.00;;;;5028702;28;21109;-84
2022/12/15 15:00:49;;;;;;;35.43;21.10;;;2.20;99.90;3.00;95862.00;;;;5021956;28;20460;-85
2022/12/15 15:03:40;;;;;;;33.70;19.67;;;2.10;99.90;3.10;95847.00;;;;5021686;28;20447;-84